sensor_id;sensor_type;location;lat;lon;timestamp;pressure;altitude;pressure_sealevel;temperature;humidity
79791;BME280;69278;52.220;5.172;2023-05-19T00:00:57;102859.91;;;11.14;65.32
79791;BME280;69278;52.220;5.172;2023-05-19T00:03:25;102827.84;;;10.92;65.39
79791;BME280;69278;52.220;5.172;2023-05-19T00:05:52;102866.03;;;11.15;65.55
79791;BME280;69278;52.220;5.172;2023-05-19T00:08:21;102857.25;;;11.14;65.14
79791;BME280;69278;52.220;5.172;2023-05-19T00:10:49;102825.97;;;10.94;66.01
79791;BME280;69278;52.220;5.172;2023-05-19T00:13:16;102838.03;;;10.98;65.53
79791;BME280;69278;52.220;5.172;2023-05-19T00:15:42;102851.97;;;11.00;65.84
79791;BME280;69278;52.220;5.172;2023-05-19T00:18:09;102846.88;;;10.97;66.20
79791;BME280;69278;52.220;5.172;2023-05-19T00:20:39;102851.47;;;10.94;66.51
79791;BME280;69278;52.220;5.172;2023-05-19T00:23:07;102826.00;;;10.79;66.11
79791;BME280;69278;52.220;5.172;2023-05-19T00:25:33;102845.63;;;10.89;66.83
79791;BME280;69278;52.220;5.172;2023-05-19T00:28:00;102843.00;;;10.89;66.64
79791;BME280;69278;52.220;5.172;2023-05-19T00:30:31;102849.13;;;10.89;66.92
79791;BME280;69278;52.220;5.172;2023-05-19T00:32:57;102852.03;;;10.85;66.87
79791;BME280;69278;52.220;5.172;2023-05-19T00:35:24;102804.41;;;10.58;66.60
79791;BME280;69278;52.220;5.172;2023-05-19T00:37:50;102844.88;;;10.87;66.50
79791;BME280;69278;52.220;5.172;2023-05-19T00:40:17;102817.03;;;10.67;67.04
79791;BME280;69278;52.220;5.172;2023-05-19T00:42:44;102833.84;;;10.80;66.80
79791;BME280;69278;52.220;5.172;2023-05-19T00:45:10;102853.97;;;10.81;67.10
79791;BME280;69278;52.220;5.172;2023-05-19T00:47:38;102819.94;;;10.62;67.14
79791;BME280;69278;52.220;5.172;2023-05-19T00:50:04;102842.84;;;10.76;67.43
79791;BME280;69278;52.220;5.172;2023-05-19T00:52:31;102819.00;;;10.63;67.22
79791;BME280;69278;52.220;5.172;2023-05-19T00:54:58;102821.03;;;10.58;67.37
79791;BME280;69278;52.220;5.172;2023-05-19T00:57:24;102846.78;;;10.69;68.00
79791;BME280;69278;52.220;5.172;2023-05-19T00:59:52;102850.44;;;10.66;67.87
79791;BME280;69278;52.220;5.172;2023-05-19T01:02:19;102801.28;;;10.36;67.99
79791;BME280;69278;52.220;5.172;2023-05-19T01:04:46;102834.47;;;10.54;67.63
79791;BME280;69278;52.220;5.172;2023-05-19T01:07:13;102824.97;;;10.51;67.75
79791;BME280;69278;52.220;5.172;2023-05-19T01:09:40;102821.06;;;10.43;67.99
79791;BME280;69278;52.220;5.172;2023-05-19T01:12:07;102810.22;;;10.33;67.89
79791;BME280;69278;52.220;5.172;2023-05-19T01:14:34;102834.41;;;10.55;68.63
79791;BME280;69278;52.220;5.172;2023-05-19T01:17:29;102774.09;;;10.20;68.09
79791;BME280;69278;52.220;5.172;2023-05-19T01:20:06;102781.09;;;10.21;68.53
79791;BME280;69278;52.220;5.172;2023-05-19T01:31:22;102815.66;;;10.30;69.32
79791;BME280;69278;52.220;5.172;2023-05-19T01:33:52;102692.28;;;9.62;69.07
79791;BME280;69278;52.220;5.172;2023-05-19T01:36:21;102827.69;;;10.34;69.57
79791;BME280;69278;52.220;5.172;2023-05-19T01:38:53;102755.94;;;9.99;69.70
79791;BME280;69278;52.220;5.172;2023-05-19T01:41:21;102816.06;;;10.38;69.13
79791;BME280;69278;52.220;5.172;2023-05-19T01:43:48;102810.88;;;10.37;69.30
79791;BME280;69278;52.220;5.172;2023-05-19T01:46:16;102759.25;;;10.03;69.43
79791;BME280;69278;52.220;5.172;2023-05-19T01:48:43;102814.47;;;10.36;69.22
79791;BME280;69278;52.220;5.172;2023-05-19T01:51:10;102759.06;;;10.06;69.32
79791;BME280;69278;52.220;5.172;2023-05-19T01:53:36;102685.41;;;9.59;70.02
79791;BME280;69278;52.220;5.172;2023-05-19T01:56:04;102812.94;;;10.32;69.54
79791;BME280;69278;52.220;5.172;2023-05-19T01:58:45;102744.22;;;9.89;69.98
79791;BME280;69278;52.220;5.172;2023-05-19T02:01:36;102816.59;;;10.29;70.61
79791;BME280;69278;52.220;5.172;2023-05-19T02:04:28;102804.34;;;10.28;70.41
79791;BME280;69278;52.220;5.172;2023-05-19T02:07:33;102813.00;;;10.30;69.80
79791;BME280;69278;52.220;5.172;2023-05-19T02:10:10;102813.19;;;10.27;70.65
79791;BME280;69278;52.220;5.172;2023-05-19T02:12:37;102764.09;;;9.95;70.26
79791;BME280;69278;52.220;5.172;2023-05-19T02:15:23;102771.75;;;9.99;71.22
79791;BME280;69278;52.220;5.172;2023-05-19T02:17:52;102799.09;;;10.13;70.56
79791;BME280;69278;52.220;5.172;2023-05-19T02:20:19;102789.53;;;10.10;70.68
79791;BME280;69278;52.220;5.172;2023-05-19T02:22:47;102805.63;;;10.21;70.28
79791;BME280;69278;52.220;5.172;2023-05-19T02:25:14;102770.03;;;9.98;70.37
79791;BME280;69278;52.220;5.172;2023-05-19T02:27:40;102804.94;;;10.18;70.80
79791;BME280;69278;52.220;5.172;2023-05-19T02:30:08;102804.78;;;10.21;70.79
79791;BME280;69278;52.220;5.172;2023-05-19T02:32:34;102798.84;;;10.17;71.04
79791;BME280;69278;52.220;5.172;2023-05-19T02:35:02;102756.63;;;9.87;71.11
79791;BME280;69278;52.220;5.172;2023-05-19T02:37:29;102793.97;;;10.10;71.16
79791;BME280;69278;52.220;5.172;2023-05-19T02:39:56;102791.41;;;10.08;71.37
79791;BME280;69278;52.220;5.172;2023-05-19T02:42:23;102788.03;;;10.06;71.63
79791;BME280;69278;52.220;5.172;2023-05-19T02:44:49;102774.53;;;9.96;71.14
79791;BME280;69278;52.220;5.172;2023-05-19T02:47:16;102797.69;;;10.06;72.26
79791;BME280;69278;52.220;5.172;2023-05-19T02:49:42;102779.03;;;9.94;72.01
79791;BME280;69278;52.220;5.172;2023-05-19T02:52:09;102791.09;;;9.98;71.82
79791;BME280;69278;52.220;5.172;2023-05-19T02:54:37;102791.78;;;10.02;72.00
79791;BME280;69278;52.220;5.172;2023-05-19T02:57:04;102764.44;;;9.89;72.12
79791;BME280;69278;52.220;5.172;2023-05-19T02:59:30;102788.44;;;9.98;72.50
79791;BME280;69278;52.220;5.172;2023-05-19T03:02:01;102779.78;;;9.96;72.38
79791;BME280;69278;52.220;5.172;2023-05-19T03:04:28;102768.50;;;9.94;72.38
79791;BME280;69278;52.220;5.172;2023-05-19T03:06:55;102765.13;;;9.92;72.26
79791;BME280;69278;52.220;5.172;2023-05-19T03:09:22;102713.78;;;9.54;72.27
79791;BME280;69278;52.220;5.172;2023-05-19T03:11:49;102746.84;;;9.74;72.39
79791;BME280;69278;52.220;5.172;2023-05-19T03:14:15;102737.44;;;9.70;72.63
79791;BME280;69278;52.220;5.172;2023-05-19T03:16:43;102728.69;;;9.54;73.64
79791;BME280;69278;52.220;5.172;2023-05-19T03:19:10;102752.56;;;9.66;72.94
79791;BME280;69278;52.220;5.172;2023-05-19T03:21:37;102745.13;;;9.57;73.37
79791;BME280;69278;52.220;5.172;2023-05-19T03:24:03;102753.78;;;9.59;73.59
79791;BME280;69278;52.220;5.172;2023-05-19T03:26:30;102730.88;;;9.46;73.54
79791;BME280;69278;52.220;5.172;2023-05-19T03:28:56;102740.06;;;9.54;74.00
79791;BME280;69278;52.220;5.172;2023-05-19T03:31:23;102751.34;;;9.56;73.77
79791;BME280;69278;52.220;5.172;2023-05-19T03:33:49;102765.53;;;9.69;73.62
79791;BME280;69278;52.220;5.172;2023-05-19T03:36:16;102743.47;;;9.56;73.76
79791;BME280;69278;52.220;5.172;2023-05-19T03:38:42;102744.97;;;9.60;73.76
79791;BME280;69278;52.220;5.172;2023-05-19T03:41:09;102768.00;;;9.72;73.57
79791;BME280;69278;52.220;5.172;2023-05-19T03:43:35;102713.34;;;9.46;73.60
79791;BME280;69278;52.220;5.172;2023-05-19T03:46:02;102758.06;;;9.77;74.00
79791;BME280;69278;52.220;5.172;2023-05-19T03:48:28;102759.94;;;9.75;73.44
79791;BME280;69278;52.220;5.172;2023-05-19T03:50:55;102709.09;;;9.44;73.70
79791;BME280;69278;52.220;5.172;2023-05-19T03:53:21;102756.72;;;9.70;73.99
79791;BME280;69278;52.220;5.172;2023-05-19T03:55:48;102753.47;;;9.65;73.96
79791;BME280;69278;52.220;5.172;2023-05-19T03:58:15;102736.34;;;9.58;74.02
79791;BME280;69278;52.220;5.172;2023-05-19T04:00:42;102726.06;;;9.54;74.00
79791;BME280;69278;52.220;5.172;2023-05-19T04:03:08;102741.44;;;9.61;74.10
79791;BME280;69278;52.220;5.172;2023-05-19T04:05:35;102738.09;;;9.89;73.67
79791;BME280;69278;52.220;5.172;2023-05-19T04:08:01;102724.09;;;10.20;72.48
79791;BME280;69278;52.220;5.172;2023-05-19T04:10:28;102716.84;;;10.39;71.63
79791;BME280;69278;52.220;5.172;2023-05-19T04:12:55;102715.28;;;10.50;71.03
79791;BME280;69278;52.220;5.172;2023-05-19T04:15:22;102768.81;;;10.95;70.28
79791;BME280;69278;52.220;5.172;2023-05-19T04:17:48;102764.03;;;11.01;70.20
79791;BME280;69278;52.220;5.172;2023-05-19T04:20:15;102746.22;;;11.05;69.93
79791;BME280;69278;52.220;5.172;2023-05-19T04:22:41;102745.78;;;11.12;69.49
79791;BME280;69278;52.220;5.172;2023-05-19T04:25:08;102764.03;;;11.15;69.50
79791;BME280;69278;52.220;5.172;2023-05-19T04:27:34;102767.16;;;11.22;69.36
79791;BME280;69278;52.220;5.172;2023-05-19T04:30:07;102747.66;;;11.10;69.27
79791;BME280;69278;52.220;5.172;2023-05-19T04:32:34;102777.53;;;11.25;69.34
79791;BME280;69278;52.220;5.172;2023-05-19T04:35:03;102691.59;;;10.79;69.16
79791;BME280;69278;52.220;5.172;2023-05-19T04:37:30;102760.47;;;11.30;69.56
79791;BME280;69278;52.220;5.172;2023-05-19T04:39:56;102724.66;;;11.12;69.32
79791;BME280;69278;52.220;5.172;2023-05-19T04:42:23;102754.53;;;11.13;69.73
79791;BME280;69278;52.220;5.172;2023-05-19T04:44:51;102764.59;;;10.92;70.22
79791;BME280;69278;52.220;5.172;2023-05-19T04:47:17;102770.00;;;10.75;70.79
79791;BME280;69278;52.220;5.172;2023-05-19T04:49:46;102761.28;;;10.59;71.55
79791;BME280;69278;52.220;5.172;2023-05-19T04:52:13;102769.41;;;10.56;72.07
79791;BME280;69278;52.220;5.172;2023-05-19T04:54:39;102761.97;;;10.33;72.68
79791;BME280;69278;52.220;5.172;2023-05-19T04:57:07;102760.34;;;10.30;72.76
79791;BME280;69278;52.220;5.172;2023-05-19T04:59:33;102770.03;;;10.30;72.63
79791;BME280;69278;52.220;5.172;2023-05-19T05:02:00;102766.81;;;10.25;72.93
79791;BME280;69278;52.220;5.172;2023-05-19T05:04:26;102780.75;;;10.27;73.71
79791;BME280;69278;52.220;5.172;2023-05-19T05:06:53;102761.44;;;10.11;73.47
79791;BME280;69278;52.220;5.172;2023-05-19T05:09:20;102788.81;;;10.24;73.95
79791;BME280;69278;52.220;5.172;2023-05-19T05:11:46;102763.84;;;9.99;74.63
79791;BME280;69278;52.220;5.172;2023-05-19T05:14:13;102774.59;;;10.11;73.87
79791;BME280;69278;52.220;5.172;2023-05-19T05:16:40;102790.69;;;10.22;74.56
79791;BME280;69278;52.220;5.172;2023-05-19T05:19:07;102792.38;;;10.23;74.39
79791;BME280;69278;52.220;5.172;2023-05-19T05:21:34;102797.81;;;10.20;74.38
79791;BME280;69278;52.220;5.172;2023-05-19T05:24:01;102762.81;;;10.02;74.58
79791;BME280;69278;52.220;5.172;2023-05-19T05:26:29;102793.06;;;10.26;74.59
79791;BME280;69278;52.220;5.172;2023-05-19T05:28:56;102799.84;;;10.30;74.36
79791;BME280;69278;52.220;5.172;2023-05-19T05:31:23;102789.69;;;10.54;74.23
79791;BME280;69278;52.220;5.172;2023-05-19T05:33:49;102789.44;;;11.02;75.16
79791;BME280;69278;52.220;5.172;2023-05-19T05:36:16;102804.94;;;11.65;73.83
79791;BME280;69278;52.220;5.172;2023-05-19T05:38:42;102791.19;;;11.88;72.58
79791;BME280;69278;52.220;5.172;2023-05-19T05:41:09;102796.19;;;12.19;71.54
79791;BME280;69278;52.220;5.172;2023-05-19T05:43:36;102777.09;;;12.28;70.00
79791;BME280;69278;52.220;5.172;2023-05-19T05:46:02;102753.94;;;12.19;69.34
79791;BME280;69278;52.220;5.172;2023-05-19T05:48:29;102790.16;;;12.44;69.50
79791;BME280;69278;52.220;5.172;2023-05-19T05:50:55;102742.66;;;12.30;69.12
79791;BME280;69278;52.220;5.172;2023-05-19T05:53:24;102790.25;;;12.69;68.96
79791;BME280;69278;52.220;5.172;2023-05-19T05:55:51;102786.31;;;12.75;68.46
79791;BME280;69278;52.220;5.172;2023-05-19T05:58:18;102793.75;;;12.82;67.63
79791;BME280;69278;52.220;5.172;2023-05-19T06:00:46;102770.38;;;12.76;67.72
79791;BME280;69278;52.220;5.172;2023-05-19T06:03:15;102769.44;;;12.90;67.20
79791;BME280;69278;52.220;5.172;2023-05-19T06:05:42;102779.28;;;13.00;65.75
79791;BME280;69278;52.220;5.172;2023-05-19T06:08:08;102790.34;;;13.19;66.08
79791;BME280;69278;52.220;5.172;2023-05-19T06:10:35;102797.41;;;13.19;64.50
79791;BME280;69278;52.220;5.172;2023-05-19T06:13:04;102790.31;;;13.07;65.29
79791;BME280;69278;52.220;5.172;2023-05-19T06:15:30;102778.81;;;13.08;65.20
79791;BME280;69278;52.220;5.172;2023-05-19T06:17:57;102791.28;;;13.18;64.97
79791;BME280;69278;52.220;5.172;2023-05-19T06:20:24;102787.91;;;13.29;64.67
79791;BME280;69278;52.220;5.172;2023-05-19T06:22:51;102787.38;;;13.37;64.36
79791;BME280;69278;52.220;5.172;2023-05-19T06:25:18;102790.75;;;13.39;64.15
79791;BME280;69278;52.220;5.172;2023-05-19T06:27:45;102785.75;;;13.47;63.93
79791;BME280;69278;52.220;5.172;2023-05-19T06:30:12;102773.28;;;13.36;63.66
79791;BME280;69278;52.220;5.172;2023-05-19T06:32:39;102769.97;;;13.45;63.67
79791;BME280;69278;52.220;5.172;2023-05-19T06:35:05;102766.91;;;13.51;63.34
79791;BME280;69278;52.220;5.172;2023-05-19T06:37:32;102753.50;;;13.42;62.74
79791;BME280;69278;52.220;5.172;2023-05-19T06:39:59;102781.41;;;13.58;63.15
79791;BME280;69278;52.220;5.172;2023-05-19T06:42:25;102771.34;;;13.63;63.18
79791;BME280;69278;52.220;5.172;2023-05-19T06:44:52;102754.47;;;13.64;63.04
79791;BME280;69278;52.220;5.172;2023-05-19T06:47:18;102776.16;;;13.82;62.49
79791;BME280;69278;52.220;5.172;2023-05-19T06:49:45;102741.78;;;13.69;62.49
79791;BME280;69278;52.220;5.172;2023-05-19T06:52:11;102755.19;;;13.79;62.22
79791;BME280;69278;52.220;5.172;2023-05-19T06:54:38;102778.66;;;13.96;62.11
79791;BME280;69278;52.220;5.172;2023-05-19T06:57:04;102763.63;;;13.96;62.26
79791;BME280;69278;52.220;5.172;2023-05-19T06:59:31;102780.28;;;14.10;61.88
79791;BME280;69278;52.220;5.172;2023-05-19T07:01:57;102779.06;;;14.03;61.44
79791;BME280;69278;52.220;5.172;2023-05-19T07:04:24;102756.00;;;13.92;60.87
79791;BME280;69278;52.220;5.172;2023-05-19T07:06:51;102783.88;;;14.21;61.28
79791;BME280;69278;52.220;5.172;2023-05-19T07:09:17;102780.66;;;14.29;60.12
79791;BME280;69278;52.220;5.172;2023-05-19T07:11:44;102760.97;;;14.20;60.62
79791;BME280;69278;52.220;5.172;2023-05-19T07:14:11;102769.66;;;14.22;60.20
79791;BME280;69278;52.220;5.172;2023-05-19T07:16:37;102756.69;;;14.07;59.84
79791;BME280;69278;52.220;5.172;2023-05-19T07:19:04;102772.09;;;14.02;59.78
79791;BME280;69278;52.220;5.172;2023-05-19T07:21:30;102767.16;;;13.84;59.57
79791;BME280;69278;52.220;5.172;2023-05-19T07:23:57;102727.44;;;13.48;60.00
79791;BME280;69278;52.220;5.172;2023-05-19T07:26:23;102762.44;;;13.64;60.24
79791;BME280;69278;52.220;5.172;2023-05-19T07:28:50;102785.72;;;13.72;59.61
79791;BME280;69278;52.220;5.172;2023-05-19T07:31:17;102756.34;;;13.51;59.45
79791;BME280;69278;52.220;5.172;2023-05-19T07:33:44;102766.47;;;13.57;59.84
79791;BME280;69278;52.220;5.172;2023-05-19T07:36:11;102778.22;;;13.66;59.58
79791;BME280;69278;52.220;5.172;2023-05-19T07:38:37;102738.09;;;13.47;59.53
79791;BME280;69278;52.220;5.172;2023-05-19T07:41:04;102747.63;;;13.49;59.48
79791;BME280;69278;52.220;5.172;2023-05-19T07:43:31;102776.84;;;13.73;59.70
79791;BME280;69278;52.220;5.172;2023-05-19T07:45:57;102760.94;;;13.73;59.20
79791;BME280;69278;52.220;5.172;2023-05-19T07:48:24;102726.16;;;13.54;58.94
79791;BME280;69278;52.220;5.172;2023-05-19T07:50:51;102769.59;;;13.87;59.00
79791;BME280;69278;52.220;5.172;2023-05-19T07:53:18;102762.59;;;13.86;59.25
79791;BME280;69278;52.220;5.172;2023-05-19T07:55:45;102742.69;;;13.81;58.91
79791;BME280;69278;52.220;5.172;2023-05-19T07:58:12;102758.31;;;13.96;58.79
79791;BME280;69278;52.220;5.172;2023-05-19T08:00:38;102774.25;;;14.08;58.70
79791;BME280;69278;52.220;5.172;2023-05-19T08:03:08;102770.34;;;14.13;58.48
79791;BME280;69278;52.220;5.172;2023-05-19T08:05:35;102776.03;;;14.20;57.77
79791;BME280;69278;52.220;5.172;2023-05-19T08:08:02;102757.88;;;14.26;57.00
79791;BME280;69278;52.220;5.172;2023-05-19T08:10:29;102766.44;;;14.30;57.24
79791;BME280;69278;52.220;5.172;2023-05-19T08:12:55;102733.03;;;14.16;55.84
79791;BME280;69278;52.220;5.172;2023-05-19T08:15:25;102764.63;;;14.43;55.89
79791;BME280;69278;52.220;5.172;2023-05-19T08:17:51;102723.19;;;14.29;55.52
79791;BME280;69278;52.220;5.172;2023-05-19T08:20:18;102746.44;;;14.49;55.57
79791;BME280;69278;52.220;5.172;2023-05-19T08:22:45;102756.84;;;14.63;55.11
79791;BME280;69278;52.220;5.172;2023-05-19T08:25:12;102708.47;;;14.49;54.96
79791;BME280;69278;52.220;5.172;2023-05-19T08:27:39;102752.41;;;14.75;54.88
79791;BME280;69278;52.220;5.172;2023-05-19T08:30:06;102751.00;;;14.82;55.02
79791;BME280;69278;52.220;5.172;2023-05-19T08:32:32;102728.53;;;14.75;55.01
79791;BME280;69278;52.220;5.172;2023-05-19T08:34:59;102730.72;;;14.81;54.50
79791;BME280;69278;52.220;5.172;2023-05-19T08:37:25;102736.91;;;14.93;53.56
79791;BME280;69278;52.220;5.172;2023-05-19T08:39:52;102729.91;;;14.92;53.39
79791;BME280;69278;52.220;5.172;2023-05-19T08:42:18;102689.38;;;14.68;53.62
79791;BME280;69278;52.220;5.172;2023-05-19T08:44:45;102703.22;;;14.71;53.20
79791;BME280;69278;52.220;5.172;2023-05-19T08:47:12;102681.03;;;14.61;53.15
79791;BME280;69278;52.220;5.172;2023-05-19T08:49:43;102680.66;;;14.66;52.76
79791;BME280;69278;52.220;5.172;2023-05-19T08:57:47;102723.03;;;15.34;52.37
79791;BME280;69278;52.220;5.172;2023-05-19T09:00:15;102707.13;;;15.34;50.90
79791;BME280;69278;52.220;5.172;2023-05-19T09:02:42;102682.50;;;15.43;49.91
79791;BME280;69278;52.220;5.172;2023-05-19T09:05:26;102712.91;;;15.72;50.53
79791;BME280;69278;52.220;5.172;2023-05-19T09:07:53;102711.91;;;15.84;49.46
79791;BME280;69278;52.220;5.172;2023-05-19T09:10:20;102665.44;;;15.67;50.08
79791;BME280;69278;52.220;5.172;2023-05-19T09:12:46;102705.78;;;16.04;49.83
79791;BME280;69278;52.220;5.172;2023-05-19T09:15:16;102703.22;;;16.14;49.31
79791;BME280;69278;52.220;5.172;2023-05-19T09:17:44;102701.63;;;16.22;49.47
79791;BME280;69278;52.220;5.172;2023-05-19T09:20:13;102702.59;;;16.21;49.45
79791;BME280;69278;52.220;5.172;2023-05-19T09:22:43;102669.22;;;15.97;50.07
79791;BME280;69278;52.220;5.172;2023-05-19T09:25:21;102706.72;;;16.14;50.06
79791;BME280;69278;52.220;5.172;2023-05-19T09:27:48;102691.25;;;16.19;49.65
79791;BME280;69278;52.220;5.172;2023-05-19T09:30:16;102671.13;;;16.06;48.88
79791;BME280;69278;52.220;5.172;2023-05-19T09:32:43;102627.78;;;15.73;48.52
79791;BME280;69278;52.220;5.172;2023-05-19T09:35:11;102704.22;;;16.33;49.28
79791;BME280;69278;52.220;5.172;2023-05-19T09:37:39;102704.63;;;16.49;47.54
79791;BME280;69278;52.220;5.172;2023-05-19T09:40:09;102674.66;;;16.47;47.90
79791;BME280;69278;52.220;5.172;2023-05-19T09:42:40;102705.44;;;16.82;46.56
79791;BME280;69278;52.220;5.172;2023-05-19T09:45:07;102701.25;;;16.89;45.94
79791;BME280;69278;52.220;5.172;2023-05-19T09:47:40;102663.44;;;16.65;45.71
79791;BME280;69278;52.220;5.172;2023-05-19T09:50:09;102678.06;;;16.70;43.26
79791;BME280;69278;52.220;5.172;2023-05-19T09:52:42;102699.25;;;16.81;43.87
79791;BME280;69278;52.220;5.172;2023-05-19T09:55:10;102700.41;;;16.88;43.63
79791;BME280;69278;52.220;5.172;2023-05-19T09:57:38;102666.13;;;16.65;43.19
79791;BME280;69278;52.220;5.172;2023-05-19T10:00:07;102699.50;;;16.99;42.30
79791;BME280;69278;52.220;5.172;2023-05-19T10:02:45;102704.00;;;17.08;42.54
79791;BME280;69278;52.220;5.172;2023-05-19T10:05:19;102650.00;;;16.87;42.54
79791;BME280;69278;52.220;5.172;2023-05-19T10:07:49;102697.22;;;17.24;42.87
79791;BME280;69278;52.220;5.172;2023-05-19T10:10:17;102650.66;;;17.09;43.30
79791;BME280;69278;52.220;5.172;2023-05-19T10:12:47;102674.13;;;17.35;42.59
79791;BME280;69278;52.220;5.172;2023-05-19T10:15:17;102688.13;;;17.57;42.64
79791;BME280;69278;52.220;5.172;2023-05-19T10:17:48;102684.50;;;17.68;41.77
79791;BME280;69278;52.220;5.172;2023-05-19T10:20:16;102685.34;;;17.78;41.14
79791;BME280;69278;52.220;5.172;2023-05-19T10:22:44;102664.59;;;17.81;41.69
79791;BME280;69278;52.220;5.172;2023-05-19T10:25:11;102639.06;;;17.79;41.81
79791;BME280;69278;52.220;5.172;2023-05-19T10:28:00;102680.44;;;18.02;40.55
79791;BME280;69278;52.220;5.172;2023-05-19T10:30:32;102651.84;;;18.04;40.57
79791;BME280;69278;52.220;5.172;2023-05-19T10:33:00;102667.25;;;18.20;40.03
79791;BME280;69278;52.220;5.172;2023-05-19T10:38:47;102665.00;;;18.34;40.30
79791;BME280;69278;52.220;5.172;2023-05-19T10:44:42;102666.81;;;18.43;40.29
79791;BME280;69278;52.220;5.172;2023-05-19T10:47:11;102614.63;;;18.12;39.70
79791;BME280;69278;52.220;5.172;2023-05-19T10:49:38;102656.44;;;18.31;39.21
79791;BME280;69278;52.220;5.172;2023-05-19T10:52:18;102605.69;;;17.94;39.03
79791;BME280;69278;52.220;5.172;2023-05-19T10:54:46;102622.63;;;18.12;38.98
79791;BME280;69278;52.220;5.172;2023-05-19T10:57:14;102646.59;;;18.50;38.56
79791;BME280;69278;52.220;5.172;2023-05-19T10:59:42;102638.19;;;18.55;38.09
79791;BME280;69278;52.220;5.172;2023-05-19T11:02:37;102653.34;;;18.54;37.24
79791;BME280;69278;52.220;5.172;2023-05-19T11:05:09;102639.16;;;18.54;37.31
79791;BME280;69278;52.220;5.172;2023-05-19T11:07:40;102615.97;;;18.45;37.38
79791;BME280;69278;52.220;5.172;2023-05-19T11:10:06;102656.66;;;18.76;38.10
79791;BME280;69278;52.220;5.172;2023-05-19T11:12:44;102651.56;;;18.82;37.25
79791;BME280;69278;52.220;5.172;2023-05-19T11:15:12;102664.38;;;18.79;37.53
79791;BME280;69278;52.220;5.172;2023-05-19T11:17:39;102656.78;;;18.84;37.68
79791;BME280;69278;52.220;5.172;2023-05-19T11:20:08;102654.59;;;18.97;37.80
79791;BME280;69278;52.220;5.172;2023-05-19T11:23:00;102644.19;;;19.03;37.92
79791;BME280;69278;52.220;5.172;2023-05-19T11:25:42;102644.97;;;19.13;37.22
79791;BME280;69278;52.220;5.172;2023-05-19T11:28:09;102609.75;;;19.00;37.23
79791;BME280;69278;52.220;5.172;2023-05-19T11:30:40;102603.13;;;19.04;36.37
79791;BME280;69278;52.220;5.172;2023-05-19T11:33:07;102617.56;;;18.84;36.54
79791;BME280;69278;52.220;5.172;2023-05-19T11:35:34;102650.91;;;19.07;36.01
79791;BME280;69278;52.220;5.172;2023-05-19T11:38:02;102628.84;;;19.33;35.94
79791;BME280;69278;52.220;5.172;2023-05-19T11:40:29;102626.28;;;19.41;35.89
79791;BME280;69278;52.220;5.172;2023-05-19T11:42:55;102605.16;;;19.47;36.07
79791;BME280;69278;52.220;5.172;2023-05-19T11:45:26;102573.19;;;19.28;35.47
79791;BME280;69278;52.220;5.172;2023-05-19T11:47:54;102615.72;;;19.66;35.77
79791;BME280;69278;52.220;5.172;2023-05-19T11:50:30;102583.38;;;19.60;34.92
79791;BME280;69278;52.220;5.172;2023-05-19T11:52:58;102536.91;;;19.26;34.05
79791;BME280;69278;52.220;5.172;2023-05-19T11:55:26;102614.31;;;19.62;34.34
79791;BME280;69278;52.220;5.172;2023-05-19T12:00:38;102585.81;;;19.88;33.89
79791;BME280;69278;52.220;5.172;2023-05-19T12:03:07;102622.84;;;20.36;33.86
79791;BME280;69278;52.220;5.172;2023-05-19T12:05:42;102577.66;;;20.33;33.67
79791;BME280;69278;52.220;5.172;2023-05-19T12:08:11;102590.75;;;20.70;33.83
79791;BME280;69278;52.220;5.172;2023-05-19T12:10:39;102638.00;;;20.79;33.01
79791;BME280;69278;52.220;5.172;2023-05-19T12:13:06;102628.25;;;20.70;32.94
79791;BME280;69278;52.220;5.172;2023-05-19T12:15:36;102626.78;;;20.76;33.16
79791;BME280;69278;52.220;5.172;2023-05-19T12:18:03;102564.34;;;20.83;32.86
79791;BME280;69278;52.220;5.172;2023-05-19T12:20:30;102582.00;;;21.36;32.62
79791;BME280;69278;52.220;5.172;2023-05-19T12:23:02;102598.84;;;21.86;32.06
79791;BME280;69278;52.220;5.172;2023-05-19T12:25:29;102593.44;;;22.02;31.44
79791;BME280;69278;52.220;5.172;2023-05-19T12:27:58;102563.75;;;21.47;31.31
79791;BME280;69278;52.220;5.172;2023-05-19T12:30:26;102582.22;;;21.91;31.93
79791;BME280;69278;52.220;5.172;2023-05-19T12:32:54;102604.13;;;22.51;31.77
79791;BME280;69278;52.220;5.172;2023-05-19T12:35:35;102587.25;;;22.89;30.40
79791;BME280;69278;52.220;5.172;2023-05-19T12:38:03;102575.78;;;23.26;30.18
79791;BME280;69278;52.220;5.172;2023-05-19T12:40:30;102595.25;;;23.36;29.87
79791;BME280;69278;52.220;5.172;2023-05-19T12:42:57;102582.66;;;22.97;30.21
79791;BME280;69278;52.220;5.172;2023-05-19T12:45:24;102583.34;;;22.91;30.14
79791;BME280;69278;52.220;5.172;2023-05-19T12:47:53;102576.50;;;23.20;30.20
79791;BME280;69278;52.220;5.172;2023-05-19T12:50:20;102570.47;;;23.48;29.98
79791;BME280;69278;52.220;5.172;2023-05-19T12:52:47;102574.34;;;23.46;28.96
79791;BME280;69278;52.220;5.172;2023-05-19T12:55:17;102548.16;;;23.09;29.32
79791;BME280;69278;52.220;5.172;2023-05-19T12:57:50;102572.91;;;23.58;30.03
79791;BME280;69278;52.220;5.172;2023-05-19T13:00:23;102570.22;;;23.81;29.41
79791;BME280;69278;52.220;5.172;2023-05-19T13:03:03;102538.63;;;23.37;29.40
79791;BME280;69278;52.220;5.172;2023-05-19T13:05:32;102576.44;;;23.36;29.00
79791;BME280;69278;52.220;5.172;2023-05-19T13:08:05;102570.59;;;23.24;29.81
79791;BME280;69278;52.220;5.172;2023-05-19T13:10:33;102559.72;;;23.18;28.67
79791;BME280;69278;52.220;5.172;2023-05-19T13:13:00;102560.25;;;23.44;27.79
79791;BME280;69278;52.220;5.172;2023-05-19T13:15:28;102503.16;;;23.34;28.20
79791;BME280;69278;52.220;5.172;2023-05-19T13:18:01;102523.09;;;23.17;27.93
79791;BME280;69278;52.220;5.172;2023-05-19T13:20:28;102563.59;;;23.15;28.78